sensor_id;sensor_type;location;lat;lon;timestamp;P1;durP1;ratioP1;P2;durP2;ratioP2
14076;SDS011;7114;51.100;13.998;2023-07-31T00:00:07;6.40;;;1.55;;
14076;SDS011;7114;51.100;13.998;2023-07-31T00:02:34;7.07;;;1.63;;
14076;SDS011;7114;51.100;13.998;2023-07-31T00:05:01;5.57;;;1.48;;
14076;SDS011;7114;51.100;13.998;2023-07-31T00:07:27;6.00;;;1.58;;
14076;SDS011;7114;51.100;13.998;2023-07-31T00:09:54;7.10;;;1.67;;
14076;SDS011;7114;51.100;13.998;2023-07-31T00:12:22;6.30;;;1.60;;
14076;SDS011;7114;51.100;13.998;2023-07-31T00:14:49;5.93;;;1.50;;
14076;SDS011;7114;51.100;13.998;2023-07-31T00:17:16;7.15;;;1.80;;
14076;SDS011;7114;51.100;13.998;2023-07-31T00:19:43;7.70;;;1.70;;
14076;SDS011;7114;51.100;13.998;2023-07-31T00:22:11;7.77;;;1.47;;
14076;SDS011;7114;51.100;13.998;2023-07-31T00:24:37;6.68;;;1.70;;
14076;SDS011;7114;51.100;13.998;2023-07-31T00:27:04;6.00;;;1.40;;
14076;SDS011;7114;51.100;13.998;2023-07-31T00:29:32;9.32;;;1.67;;
14076;SDS011;7114;51.100;13.998;2023-07-31T00:31:58;7.60;;;1.80;;
14076;SDS011;7114;51.100;13.998;2023-07-31T00:34:25;8.47;;;2.00;;
14076;SDS011;7114;51.100;13.998;2023-07-31T00:36:51;8.65;;;1.70;;
14076;SDS011;7114;51.100;13.998;2023-07-31T00:39:17;10.43;;;1.60;;
14076;SDS011;7114;51.100;13.998;2023-07-31T00:41:44;8.02;;;1.70;;
14076;SDS011;7114;51.100;13.998;2023-07-31T00:44:10;10.27;;;2.13;;
14076;SDS011;7114;51.100;13.998;2023-07-31T00:46:38;8.83;;;1.80;;
14076;SDS011;7114;51.100;13.998;2023-07-31T00:49:04;7.10;;;1.55;;
14076;SDS011;7114;51.100;13.998;2023-07-31T00:51:31;6.57;;;1.42;;
14076;SDS011;7114;51.100;13.998;2023-07-31T00:53:58;9.15;;;1.95;;
14076;SDS011;7114;51.100;13.998;2023-07-31T00:56:24;6.07;;;1.67;;
14076;SDS011;7114;51.100;13.998;2023-07-31T00:58:51;7.27;;;1.60;;
14076;SDS011;7114;51.100;13.998;2023-07-31T01:01:17;7.20;;;1.60;;
14076;SDS011;7114;51.100;13.998;2023-07-31T01:03:45;8.02;;;1.40;;
14076;SDS011;7114;51.100;13.998;2023-07-31T01:06:14;7.10;;;1.50;;
14076;SDS011;7114;51.100;13.998;2023-07-31T01:08:42;8.23;;;1.63;;
14076;SDS011;7114;51.100;13.998;2023-07-31T01:11:14;8.50;;;1.40;;
14076;SDS011;7114;51.100;13.998;2023-07-31T01:13:42;7.53;;;1.70;;
14076;SDS011;7114;51.100;13.998;2023-07-31T01:16:08;6.25;;;1.38;;
14076;SDS011;7114;51.100;13.998;2023-07-31T01:18:35;6.68;;;1.77;;
14076;SDS011;7114;51.100;13.998;2023-07-31T01:21:03;7.30;;;1.65;;
14076;SDS011;7114;51.100;13.998;2023-07-31T01:23:50;6.50;;;1.43;;
14076;SDS011;7114;51.100;13.998;2023-07-31T01:26:24;6.45;;;1.35;;
14076;SDS011;7114;51.100;13.998;2023-07-31T01:28:55;6.10;;;1.30;;
14076;SDS011;7114;51.100;13.998;2023-07-31T01:31:25;7.93;;;1.40;;
14076;SDS011;7114;51.100;13.998;2023-07-31T01:33:53;6.68;;;1.30;;
14076;SDS011;7114;51.100;13.998;2023-07-31T01:36:20;8.10;;;1.60;;
14076;SDS011;7114;51.100;13.998;2023-07-31T01:38:46;6.53;;;1.48;;
14076;SDS011;7114;51.100;13.998;2023-07-31T01:41:13;7.90;;;1.50;;
14076;SDS011;7114;51.100;13.998;2023-07-31T01:43:41;6.80;;;1.50;;
14076;SDS011;7114;51.100;13.998;2023-07-31T01:46:07;7.97;;;1.35;;
14076;SDS011;7114;51.100;13.998;2023-07-31T01:48:33;6.47;;;1.40;;
14076;SDS011;7114;51.100;13.998;2023-07-31T01:51:01;6.10;;;1.48;;
14076;SDS011;7114;51.100;13.998;2023-07-31T01:53:28;6.78;;;1.42;;
14076;SDS011;7114;51.100;13.998;2023-07-31T01:55:55;6.97;;;1.50;;
14076;SDS011;7114;51.100;13.998;2023-07-31T01:58:21;6.38;;;1.55;;
14076;SDS011;7114;51.100;13.998;2023-07-31T02:00:49;6.97;;;1.30;;
14076;SDS011;7114;51.100;13.998;2023-07-31T02:03:15;7.18;;;1.50;;
14076;SDS011;7114;51.100;13.998;2023-07-31T02:05:43;5.28;;;1.20;;
14076;SDS011;7114;51.100;13.998;2023-07-31T02:08:10;8.10;;;1.63;;
14076;SDS011;7114;51.100;13.998;2023-07-31T02:10:36;7.75;;;1.40;;
14076;SDS011;7114;51.100;13.998;2023-07-31T02:13:03;5.50;;;1.30;;
14076;SDS011;7114;51.100;13.998;2023-07-31T02:15:29;6.65;;;1.35;;
14076;SDS011;7114;51.100;13.998;2023-07-31T02:17:57;6.60;;;1.45;;
14076;SDS011;7114;51.100;13.998;2023-07-31T02:20:23;7.50;;;1.20;;
14076;SDS011;7114;51.100;13.998;2023-07-31T02:22:50;8.20;;;1.48;;
14076;SDS011;7114;51.100;13.998;2023-07-31T02:25:16;5.90;;;1.20;;
14076;SDS011;7114;51.100;13.998;2023-07-31T02:27:43;5.63;;;1.30;;
14076;SDS011;7114;51.100;13.998;2023-07-31T02:30:09;6.50;;;1.40;;
14076;SDS011;7114;51.100;13.998;2023-07-31T02:32:37;6.88;;;1.30;;
14076;SDS011;7114;51.100;13.998;2023-07-31T02:35:05;5.65;;;1.05;;
14076;SDS011;7114;51.100;13.998;2023-07-31T02:37:31;5.23;;;1.10;;
14076;SDS011;7114;51.100;13.998;2023-07-31T02:39:58;5.30;;;1.10;;
14076;SDS011;7114;51.100;13.998;2023-07-31T02:42:24;9.40;;;1.40;;
14076;SDS011;7114;51.100;13.998;2023-07-31T02:44:50;7.13;;;1.38;;
14076;SDS011;7114;51.100;13.998;2023-07-31T02:47:20;6.88;;;1.10;;
14076;SDS011;7114;51.100;13.998;2023-07-31T02:49:47;8.07;;;1.40;;
14076;SDS011;7114;51.100;13.998;2023-07-31T02:52:14;5.75;;;1.27;;
14076;SDS011;7114;51.100;13.998;2023-07-31T02:54:41;6.00;;;1.13;;
14076;SDS011;7114;51.100;13.998;2023-07-31T02:57:07;6.55;;;1.38;;
14076;SDS011;7114;51.100;13.998;2023-07-31T02:59:33;5.13;;;1.00;;
14076;SDS011;7114;51.100;13.998;2023-07-31T03:02:00;5.70;;;1.10;;
14076;SDS011;7114;51.100;13.998;2023-07-31T03:04:26;7.68;;;1.73;;
14076;SDS011;7114;51.100;13.998;2023-07-31T03:06:52;7.63;;;1.15;;
14076;SDS011;7114;51.100;13.998;2023-07-31T03:09:20;5.55;;;1.20;;
14076;SDS011;7114;51.100;13.998;2023-07-31T03:11:46;6.47;;;1.20;;
14076;SDS011;7114;51.100;13.998;2023-07-31T03:14:12;5.17;;;1.10;;
14076;SDS011;7114;51.100;13.998;2023-07-31T03:16:39;6.57;;;1.20;;
14076;SDS011;7114;51.100;13.998;2023-07-31T03:19:05;8.00;;;1.60;;
14076;SDS011;7114;51.100;13.998;2023-07-31T03:21:31;6.10;;;1.17;;
14076;SDS011;7114;51.100;13.998;2023-07-31T03:23:58;10.13;;;1.27;;
14076;SDS011;7114;51.100;13.998;2023-07-31T03:26:25;6.10;;;1.30;;
14076;SDS011;7114;51.100;13.998;2023-07-31T03:28:52;6.15;;;1.20;;
14076;SDS011;7114;51.100;13.998;2023-07-31T03:31:18;6.28;;;1.02;;
14076;SDS011;7114;51.100;13.998;2023-07-31T03:33:44;5.03;;;1.00;;
14076;SDS011;7114;51.100;13.998;2023-07-31T03:36:11;4.95;;;1.08;;
14076;SDS011;7114;51.100;13.998;2023-07-31T03:38:37;7.33;;;1.10;;
14076;SDS011;7114;51.100;13.998;2023-07-31T03:41:03;6.03;;;1.30;;
14076;SDS011;7114;51.100;13.998;2023-07-31T03:43:32;6.57;;;1.00;;
14076;SDS011;7114;51.100;13.998;2023-07-31T03:45:59;4.82;;;1.10;;
14076;SDS011;7114;51.100;13.998;2023-07-31T03:48:25;6.93;;;1.23;;
14076;SDS011;7114;51.100;13.998;2023-07-31T03:50:51;8.13;;;1.13;;
14076;SDS011;7114;51.100;13.998;2023-07-31T03:53:18;5.82;;;1.15;;
14076;SDS011;7114;51.100;13.998;2023-07-31T03:55:44;4.88;;;1.30;;
14076;SDS011;7114;51.100;13.998;2023-07-31T03:58:10;6.05;;;1.23;;
14076;SDS011;7114;51.100;13.998;2023-07-31T04:00:39;6.93;;;1.27;;
14076;SDS011;7114;51.100;13.998;2023-07-31T04:03:06;5.60;;;1.10;;
14076;SDS011;7114;51.100;13.998;2023-07-31T04:05:32;6.75;;;1.05;;
14076;SDS011;7114;51.100;13.998;2023-07-31T04:07:58;6.65;;;1.23;;
14076;SDS011;7114;51.100;13.998;2023-07-31T04:10:25;5.82;;;1.02;;
14076;SDS011;7114;51.100;13.998;2023-07-31T04:12:51;5.70;;;1.20;;
14076;SDS011;7114;51.100;13.998;2023-07-31T04:15:17;7.17;;;1.20;;
14076;SDS011;7114;51.100;13.998;2023-07-31T04:17:45;6.63;;;1.15;;
14076;SDS011;7114;51.100;13.998;2023-07-31T04:20:11;5.80;;;1.00;;
14076;SDS011;7114;51.100;13.998;2023-07-31T04:22:38;6.18;;;1.10;;
14076;SDS011;7114;51.100;13.998;2023-07-31T04:25:04;6.07;;;1.17;;
14076;SDS011;7114;51.100;13.998;2023-07-31T04:27:31;6.00;;;1.13;;
14076;SDS011;7114;51.100;13.998;2023-07-31T04:29:57;6.03;;;1.10;;
14076;SDS011;7114;51.100;13.998;2023-07-31T04:32:24;4.97;;;1.20;;
14076;SDS011;7114;51.100;13.998;2023-07-31T04:34:51;6.47;;;1.10;;
14076;SDS011;7114;51.100;13.998;2023-07-31T04:37:18;5.95;;;1.17;;
14076;SDS011;7114;51.100;13.998;2023-07-31T04:39:44;6.40;;;1.40;;
14076;SDS011;7114;51.100;13.998;2023-07-31T04:42:10;5.40;;;1.25;;
14076;SDS011;7114;51.100;13.998;2023-07-31T04:44:37;6.13;;;1.23;;
14076;SDS011;7114;51.100;13.998;2023-07-31T04:47:03;6.30;;;1.48;;
14076;SDS011;7114;51.100;13.998;2023-07-31T04:49:29;5.90;;;1.20;;
14076;SDS011;7114;51.100;13.998;2023-07-31T04:51:57;6.63;;;1.40;;
14076;SDS011;7114;51.100;13.998;2023-07-31T04:54:23;6.63;;;1.48;;
14076;SDS011;7114;51.100;13.998;2023-07-31T04:56:50;6.40;;;1.90;;
14076;SDS011;7114;51.100;13.998;2023-07-31T04:59:17;5.40;;;1.20;;
14076;SDS011;7114;51.100;13.998;2023-07-31T05:01:43;7.32;;;1.42;;
14076;SDS011;7114;51.100;13.998;2023-07-31T05:04:12;6.90;;;1.27;;
14076;SDS011;7114;51.100;13.998;2023-07-31T05:06:38;6.45;;;1.55;;
14076;SDS011;7114;51.100;13.998;2023-07-31T05:09:06;6.22;;;1.20;;
14076;SDS011;7114;51.100;13.998;2023-07-31T05:11:34;6.10;;;1.30;;
14076;SDS011;7114;51.100;13.998;2023-07-31T05:14:00;5.85;;;1.42;;
14076;SDS011;7114;51.100;13.998;2023-07-31T05:16:27;5.67;;;1.40;;
14076;SDS011;7114;51.100;13.998;2023-07-31T05:18:53;5.32;;;1.30;;
14076;SDS011;7114;51.100;13.998;2023-07-31T05:21:19;6.10;;;1.40;;
14076;SDS011;7114;51.100;13.998;2023-07-31T05:23:45;5.88;;;1.30;;
14076;SDS011;7114;51.100;13.998;2023-07-31T05:26:14;7.05;;;1.55;;
14076;SDS011;7114;51.100;13.998;2023-07-31T05:28:40;5.93;;;1.30;;
14076;SDS011;7114;51.100;13.998;2023-07-31T05:31:06;5.05;;;1.13;;
14076;SDS011;7114;51.100;13.998;2023-07-31T05:33:33;5.55;;;1.20;;
14076;SDS011;7114;51.100;13.998;2023-07-31T05:35:59;6.10;;;1.30;;
14076;SDS011;7114;51.100;13.998;2023-07-31T05:38:26;6.13;;;1.50;;
14076;SDS011;7114;51.100;13.998;2023-07-31T05:40:52;7.57;;;1.53;;
14076;SDS011;7114;51.100;13.998;2023-07-31T05:43:20;5.57;;;1.40;;
14076;SDS011;7114;51.100;13.998;2023-07-31T05:45:46;4.93;;;1.30;;
14076;SDS011;7114;51.100;13.998;2023-07-31T05:48:12;5.53;;;1.30;;
14076;SDS011;7114;51.100;13.998;2023-07-31T05:50:39;5.32;;;1.27;;
14076;SDS011;7114;51.100;13.998;2023-07-31T05:53:05;6.67;;;1.40;;
14076;SDS011;7114;51.100;13.998;2023-07-31T05:55:33;5.90;;;1.52;;
14076;SDS011;7114;51.100;13.998;2023-07-31T05:57:59;5.90;;;1.50;;
14076;SDS011;7114;51.100;13.998;2023-07-31T06:00:27;5.97;;;1.40;;
14076;SDS011;7114;51.100;13.998;2023-07-31T06:02:53;6.03;;;1.40;;
14076;SDS011;7114;51.100;13.998;2023-07-31T06:05:20;7.90;;;2.00;;
14076;SDS011;7114;51.100;13.998;2023-07-31T06:07:46;8.65;;;2.00;;
14076;SDS011;7114;51.100;13.998;2023-07-31T06:10:12;8.65;;;2.97;;
14076;SDS011;7114;51.100;13.998;2023-07-31T06:12:39;9.27;;;2.22;;
14076;SDS011;7114;51.100;13.998;2023-07-31T06:15:06;6.70;;;1.75;;
14076;SDS011;7114;51.100;13.998;2023-07-31T06:17:34;7.33;;;1.70;;
14076;SDS011;7114;51.100;13.998;2023-07-31T06:20:00;8.18;;;1.60;;
14076;SDS011;7114;51.100;13.998;2023-07-31T06:22:28;7.97;;;1.40;;
14076;SDS011;7114;51.100;13.998;2023-07-31T06:24:54;5.97;;;1.20;;
14076;SDS011;7114;51.100;13.998;2023-07-31T06:27:21;6.90;;;1.40;;
14076;SDS011;7114;51.100;13.998;2023-07-31T06:29:47;6.10;;;1.40;;
14076;SDS011;7114;51.100;13.998;2023-07-31T06:32:13;5.53;;;1.15;;
14076;SDS011;7114;51.100;13.998;2023-07-31T06:34:41;7.05;;;1.50;;
14076;SDS011;7114;51.100;13.998;2023-07-31T06:37:08;7.35;;;1.52;;
14076;SDS011;7114;51.100;13.998;2023-07-31T06:39:34;6.35;;;1.60;;
14076;SDS011;7114;51.100;13.998;2023-07-31T06:42:00;7.07;;;1.20;;
14076;SDS011;7114;51.100;13.998;2023-07-31T06:44:27;5.22;;;1.40;;
14076;SDS011;7114;51.100;13.998;2023-07-31T06:46:53;5.15;;;1.27;;
14076;SDS011;7114;51.100;13.998;2023-07-31T06:49:20;6.32;;;1.27;;
14076;SDS011;7114;51.100;13.998;2023-07-31T06:51:47;5.50;;;1.38;;
14076;SDS011;7114;51.100;13.998;2023-07-31T06:54:14;6.87;;;1.40;;
14076;SDS011;7114;51.100;13.998;2023-07-31T06:56:40;6.13;;;1.25;;
14076;SDS011;7114;51.100;13.998;2023-07-31T06:59:06;7.00;;;1.45;;
14076;SDS011;7114;51.100;13.998;2023-07-31T07:01:33;7.95;;;1.55;;
14076;SDS011;7114;51.100;13.998;2023-07-31T07:03:59;6.43;;;1.38;;
14076;SDS011;7114;51.100;13.998;2023-07-31T07:06:26;6.80;;;1.50;;
14076;SDS011;7114;51.100;13.998;2023-07-31T07:08:54;6.65;;;1.20;;
14076;SDS011;7114;51.100;13.998;2023-07-31T07:11:21;6.15;;;1.30;;
14076;SDS011;7114;51.100;13.998;2023-07-31T07:13:47;6.00;;;1.33;;
14076;SDS011;7114;51.100;13.998;2023-07-31T07:16:14;6.65;;;1.60;;
14076;SDS011;7114;51.100;13.998;2023-07-31T07:18:40;6.07;;;1.20;;
14076;SDS011;7114;51.100;13.998;2023-07-31T07:21:07;6.22;;;1.45;;
14076;SDS011;7114;51.100;13.998;2023-07-31T07:23:33;6.20;;;1.67;;
14076;SDS011;7114;51.100;13.998;2023-07-31T07:26:01;6.57;;;1.55;;
14076;SDS011;7114;51.100;13.998;2023-07-31T07:28:27;7.22;;;1.50;;
14076;SDS011;7114;51.100;13.998;2023-07-31T07:30:54;6.90;;;1.60;;
14076;SDS011;7114;51.100;13.998;2023-07-31T07:33:20;5.82;;;1.40;;
14076;SDS011;7114;51.100;13.998;2023-07-31T07:35:47;5.68;;;1.40;;
14076;SDS011;7114;51.100;13.998;2023-07-31T07:38:13;6.25;;;1.60;;
14076;SDS011;7114;51.100;13.998;2023-07-31T07:40:40;6.80;;;1.60;;
14076;SDS011;7114;51.100;13.998;2023-07-31T07:43:08;5.50;;;1.33;;
14076;SDS011;7114;51.100;13.998;2023-07-31T07:45:34;6.95;;;1.65;;
14076;SDS011;7114;51.100;13.998;2023-07-31T07:48:01;7.13;;;1.50;;
14076;SDS011;7114;51.100;13.998;2023-07-31T07:50:27;6.25;;;1.52;;
14076;SDS011;7114;51.100;13.998;2023-07-31T07:52:53;6.93;;;1.40;;
14076;SDS011;7114;51.100;13.998;2023-07-31T07:55:20;5.10;;;1.40;;
14076;SDS011;7114;51.100;13.998;2023-07-31T07:57:46;6.38;;;1.75;;
14076;SDS011;7114;51.100;13.998;2023-07-31T08:00:16;7.10;;;1.67;;
14076;SDS011;7114;51.100;13.998;2023-07-31T08:02:43;6.28;;;1.65;;
14076;SDS011;7114;51.100;13.998;2023-07-31T08:05:09;7.10;;;1.77;;
14076;SDS011;7114;51.100;13.998;2023-07-31T08:07:36;6.30;;;1.83;;
14076;SDS011;7114;51.100;13.998;2023-07-31T08:10:02;5.88;;;1.30;;
14076;SDS011;7114;51.100;13.998;2023-07-31T08:12:29;6.30;;;1.42;;
14076;SDS011;7114;51.100;13.998;2023-07-31T08:14:56;6.68;;;1.50;;
14076;SDS011;7114;51.100;13.998;2023-07-31T08:17:23;5.90;;;1.48;;
14076;SDS011;7114;51.100;13.998;2023-07-31T08:19:50;7.57;;;2.00;;
14076;SDS011;7114;51.100;13.998;2023-07-31T08:22:16;8.05;;;1.80;;
14076;SDS011;7114;51.100;13.998;2023-07-31T08:24:42;6.88;;;1.70;;
14076;SDS011;7114;51.100;13.998;2023-07-31T08:27:09;6.03;;;1.50;;
14076;SDS011;7114;51.100;13.998;2023-07-31T08:29:36;6.47;;;1.60;;
14076;SDS011;7114;51.100;13.998;2023-07-31T08:32:02;6.10;;;1.40;;
14076;SDS011;7114;51.100;13.998;2023-07-31T08:34:30;6.35;;;1.50;;
14076;SDS011;7114;51.100;13.998;2023-07-31T08:36:57;8.30;;;1.77;;
14076;SDS011;7114;51.100;13.998;2023-07-31T08:39:23;5.32;;;1.30;;
14076;SDS011;7114;51.100;13.998;2023-07-31T08:41:50;7.97;;;1.85;;
14076;SDS011;7114;51.100;13.998;2023-07-31T08:44:16;8.53;;;1.73;;
14076;SDS011;7114;51.100;13.998;2023-07-31T08:46:43;7.57;;;1.90;;
14076;SDS011;7114;51.100;13.998;2023-07-31T08:49:10;6.78;;;1.60;;
14076;SDS011;7114;51.100;13.998;2023-07-31T08:51:38;5.93;;;1.70;;
14076;SDS011;7114;51.100;13.998;2023-07-31T08:54:05;7.30;;;1.67;;
14076;SDS011;7114;51.100;13.998;2023-07-31T08:56:31;7.67;;;1.90;;
14076;SDS011;7114;51.100;13.998;2023-07-31T08:58:58;7.28;;;1.88;;
14076;SDS011;7114;51.100;13.998;2023-07-31T09:01:26;6.65;;;1.90;;
14076;SDS011;7114;51.100;13.998;2023-07-31T09:03:55;7.63;;;2.00;;
14076;SDS011;7114;51.100;13.998;2023-07-31T09:06:23;6.90;;;1.50;;
14076;SDS011;7114;51.100;13.998;2023-07-31T09:08:52;7.43;;;1.70;;
14076;SDS011;7114;51.100;13.998;2023-07-31T09:11:18;6.43;;;1.73;;
14076;SDS011;7114;51.100;13.998;2023-07-31T09:13:44;7.43;;;1.80;;
14076;SDS011;7114;51.100;13.998;2023-07-31T09:16:11;7.47;;;1.85;;
14076;SDS011;7114;51.100;13.998;2023-07-31T09:18:52;6.15;;;1.80;;
14076;SDS011;7114;51.100;13.998;2023-07-31T09:21:19;6.40;;;1.70;;
14076;SDS011;7114;51.100;13.998;2023-07-31T09:23:46;7.00;;;1.80;;
14076;SDS011;7114;51.100;13.998;2023-07-31T09:26:28;6.10;;;1.50;;
14076;SDS011;7114;51.100;13.998;2023-07-31T09:28:55;7.22;;;1.67;;
14076;SDS011;7114;51.100;13.998;2023-07-31T09:31:31;7.22;;;1.60;;
14076;SDS011;7114;51.100;13.998;2023-07-31T09:33:58;7.43;;;1.80;;
14076;SDS011;7114;51.100;13.998;2023-07-31T09:36:25;5.68;;;1.40;;
14076;SDS011;7114;51.100;13.998;2023-07-31T09:38:55;7.82;;;1.60;;
14076;SDS011;7114;51.100;13.998;2023-07-31T09:41:23;5.97;;;1.73;;
14076;SDS011;7114;51.100;13.998;2023-07-31T09:43:52;5.53;;;1.48;;
14076;SDS011;7114;51.100;13.998;2023-07-31T09:46:19;6.03;;;1.67;;
14076;SDS011;7114;51.100;13.998;2023-07-31T09:48:46;6.03;;;1.58;;
14076;SDS011;7114;51.100;13.998;2023-07-31T09:51:13;7.00;;;1.85;;
14076;SDS011;7114;51.100;13.998;2023-07-31T09:53:39;6.10;;;1.70;;
14076;SDS011;7114;51.100;13.998;2023-07-31T09:56:05;6.90;;;1.75;;
14076;SDS011;7114;51.100;13.998;2023-07-31T09:58:34;7.80;;;1.87;;
14076;SDS011;7114;51.100;13.998;2023-07-31T10:01:01;5.78;;;1.63;;
14076;SDS011;7114;51.100;13.998;2023-07-31T10:03:28;7.80;;;2.00;;
14076;SDS011;7114;51.100;13.998;2023-07-31T10:05:55;6.20;;;1.38;;
14076;SDS011;7114;51.100;13.998;2023-07-31T10:08:23;7.03;;;1.77;;
14076;SDS011;7114;51.100;13.998;2023-07-31T10:10:54;6.90;;;1.70;;
14076;SDS011;7114;51.100;13.998;2023-07-31T10:13:20;6.30;;;1.58;;
14076;SDS011;7114;51.100;13.998;2023-07-31T10:15:49;6.78;;;1.90;;
14076;SDS011;7114;51.100;13.998;2023-07-31T10:18:16;9.07;;;1.85;;
14076;SDS011;7114;51.100;13.998;2023-07-31T10:20:44;5.85;;;1.50;;
14076;SDS011;7114;51.100;13.998;2023-07-31T10:23:11;6.17;;;1.70;;
14076;SDS011;7114;51.100;13.998;2023-07-31T10:25:38;7.65;;;1.48;;
14076;SDS011;7114;51.100;13.998;2023-07-31T10:28:04;7.20;;;1.60;;
14076;SDS011;7114;51.100;13.998;2023-07-31T10:30:32;7.57;;;1.60;;
14076;SDS011;7114;51.100;13.998;2023-07-31T10:33:01;6.07;;;1.65;;
14076;SDS011;7114;51.100;13.998;2023-07-31T10:35:28;6.50;;;1.60;;
14076;SDS011;7114;51.100;13.998;2023-07-31T10:37:55;5.60;;;1.60;;
14076;SDS011;7114;51.100;13.998;2023-07-31T10:40:23;9.60;;;2.17;;
14076;SDS011;7114;51.100;13.998;2023-07-31T10:42:51;6.03;;;1.55;;
14076;SDS011;7114;51.100;13.998;2023-07-31T10:45:24;6.40;;;1.50;;
14076;SDS011;7114;51.100;13.998;2023-07-31T10:47:57;6.30;;;1.77;;
14076;SDS011;7114;51.100;13.998;2023-07-31T10:50:26;5.85;;;1.67;;
14076;SDS011;7114;51.100;13.998;2023-07-31T10:52:53;7.72;;;1.55;;
14076;SDS011;7114;51.100;13.998;2023-07-31T10:55:27;5.60;;;1.48;;
14076;SDS011;7114;51.100;13.998;2023-07-31T10:57:55;6.22;;;1.50;;
14076;SDS011;7114;51.100;13.998;2023-07-31T11:00:24;6.63;;;1.80;;
14076;SDS011;7114;51.100;13.998;2023-07-31T11:03:01;5.60;;;1.40;;
14076;SDS011;7114;51.100;13.998;2023-07-31T11:05:46;5.72;;;1.67;;
14076;SDS011;7114;51.100;13.998;2023-07-31T11:08:15;6.57;;;1.70;;
14076;SDS011;7114;51.100;13.998;2023-07-31T11:10:43;6.63;;;1.70;;
14076;SDS011;7114;51.100;13.998;2023-07-31T11:13:10;7.57;;;1.70;;
14076;SDS011;7114;51.100;13.998;2023-07-31T11:15:36;7.13;;;1.80;;
14076;SDS011;7114;51.100;13.998;2023-07-31T11:18:03;5.85;;;1.60;;
14076;SDS011;7114;51.100;13.998;2023-07-31T11:20:31;6.82;;;1.67;;
14076;SDS011;7114;51.100;13.998;2023-07-31T11:22:59;6.15;;;1.90;;
14076;SDS011;7114;51.100;13.998;2023-07-31T11:25:28;6.03;;;1.80;;
14076;SDS011;7114;51.100;13.998;2023-07-31T11:27:55;6.38;;;1.80;;
14076;SDS011;7114;51.100;13.998;2023-07-31T11:30:22;6.70;;;1.52;;
14076;SDS011;7114;51.100;13.998;2023-07-31T11:32:48;6.13;;;1.77;;
14076;SDS011;7114;51.100;13.998;2023-07-31T11:35:14;6.82;;;1.80;;
14076;SDS011;7114;51.100;13.998;2023-07-31T11:37:41;6.57;;;1.90;;
14076;SDS011;7114;51.100;13.998;2023-07-31T11:40:10;6.97;;;1.90;;
14076;SDS011;7114;51.100;13.998;2023-07-31T11:42:37;6.15;;;1.60;;
14076;SDS011;7114;51.100;13.998;2023-07-31T11:45:03;6.10;;;1.77;;
14076;SDS011;7114;51.100;13.998;2023-07-31T11:47:32;6.38;;;1.77;;
14076;SDS011;7114;51.100;13.998;2023-07-31T11:49:59;7.83;;;1.97;;
14076;SDS011;7114;51.100;13.998;2023-07-31T11:52:26;6.95;;;2.17;;
14076;SDS011;7114;51.100;13.998;2023-07-31T11:54:53;6.35;;;1.80;;
14076;SDS011;7114;51.100;13.998;2023-07-31T11:57:21;7.68;;;1.70;;
14076;SDS011;7114;51.100;13.998;2023-07-31T11:59:48;6.90;;;1.80;;
14076;SDS011;7114;51.100;13.998;2023-07-31T12:02:15;5.10;;;1.50;;
14076;SDS011;7114;51.100;13.998;2023-07-31T12:04:41;5.80;;;1.80;;
14076;SDS011;7114;51.100;13.998;2023-07-31T12:07:07;6.10;;;1.60;;
14076;SDS011;7114;51.100;13.998;2023-07-31T12:09:34;6.97;;;1.60;;
14076;SDS011;7114;51.100;13.998;2023-07-31T12:12:00;5.53;;;1.52;;
14076;SDS011;7114;51.100;13.998;2023-07-31T12:14:29;6.67;;;1.80;;
14076;SDS011;7114;51.100;13.998;2023-07-31T12:16:56;5.88;;;1.70;;
14076;SDS011;7114;51.100;13.998;2023-07-31T12:19:24;6.18;;;1.60;;
14076;SDS011;7114;51.100;13.998;2023-07-31T12:21:52;6.47;;;1.60;;
14076;SDS011;7114;51.100;13.998;2023-07-31T12:24:19;9.90;;;1.60;;
14076;SDS011;7114;51.100;13.998;2023-07-31T12:26:45;8.67;;;1.73;;
14076;SDS011;7114;51.100;13.998;2023-07-31T12:29:12;7.47;;;1.58;;
14076;SDS011;7114;51.100;13.998;2023-07-31T12:31:40;5.65;;;1.50;;
14076;SDS011;7114;51.100;13.998;2023-07-31T12:34:15;5.57;;;1.42;;
14076;SDS011;7114;51.100;13.998;2023-07-31T12:36:41;6.13;;;1.73;;
14076;SDS011;7114;51.100;13.998;2023-07-31T12:39:08;6.47;;;1.70;;
14076;SDS011;7114;51.100;13.998;2023-07-31T12:41:34;6.20;;;1.60;;
14076;SDS011;7114;51.100;13.998;2023-07-31T12:44:01;6.68;;;1.38;;
14076;SDS011;7114;51.100;13.998;2023-07-31T12:46:28;6.53;;;1.30;;
14076;SDS011;7114;51.100;13.998;2023-07-31T12:48:55;5.20;;;1.30;;
14076;SDS011;7114;51.100;13.998;2023-07-31T12:51:22;5.63;;;1.60;;
14076;SDS011;7114;51.100;13.998;2023-07-31T12:53:48;5.65;;;1.63;;
14076;SDS011;7114;51.100;13.998;2023-07-31T12:56:14;5.93;;;1.70;;
14076;SDS011;7114;51.100;13.998;2023-07-31T12:58:42;5.65;;;1.60;;
14076;SDS011;7114;51.100;13.998;2023-07-31T13:01:08;5.82;;;1.40;;
14076;SDS011;7114;51.100;13.998;2023-07-31T13:03:35;5.80;;;1.20;;
14076;SDS011;7114;51.100;13.998;2023-07-31T13:06:02;5.95;;;1.60;;
14076;SDS011;7114;51.100;13.998;2023-07-31T13:08:30;6.97;;;1.50;;
14076;SDS011;7114;51.100;13.998;2023-07-31T13:10:56;6.65;;;1.60;;
14076;SDS011;7114;51.100;13.998;2023-07-31T13:13:23;6.32;;;1.73;;
14076;SDS011;7114;51.100;13.998;2023-07-31T13:15:49;7.57;;;1.43;;
14076;SDS011;7114;51.100;13.998;2023-07-31T13:18:15;5.78;;;1.75;;
14076;SDS011;7114;51.100;13.998;2023-07-31T13:20:42;5.38;;;1.50;;
14076;SDS011;7114;51.100;13.998;2023-07-31T13:23:09;5.38;;;1.55;;
14076;SDS011;7114;51.100;13.998;2023-07-31T13:25:35;7.25;;;1.67;;
14076;SDS011;7114;51.100;13.998;2023-07-31T13:28:01;5.53;;;1.50;;
14076;SDS011;7114;51.100;13.998;2023-07-31T13:30:28;5.40;;;1.58;;
14076;SDS011;7114;51.100;13.998;2023-07-31T13:32:54;6.80;;;1.70;;
14076;SDS011;7114;51.100;13.998;2023-07-31T13:35:20;6.20;;;1.70;;
14076;SDS011;7114;51.100;13.998;2023-07-31T13:37:46;6.40;;;1.70;;
14076;SDS011;7114;51.100;13.998;2023-07-31T13:40:14;5.40;;;1.50;;
14076;SDS011;7114;51.100;13.998;2023-07-31T13:42:40;7.00;;;1.92;;
14076;SDS011;7114;51.100;13.998;2023-07-31T13:45:07;6.90;;;2.00;;
14076;SDS011;7114;51.100;13.998;2023-07-31T13:47:34;5.30;;;1.60;;
14076;SDS011;7114;51.100;13.998;2023-07-31T13:50:02;7.57;;;1.63;;
14076;SDS011;7114;51.100;13.998;2023-07-31T13:52:28;8.23;;;1.80;;
14076;SDS011;7114;51.100;13.998;2023-07-31T13:54:55;6.03;;;1.95;;
14076;SDS011;7114;51.100;13.998;2023-07-31T13:57:22;6.30;;;1.70;;
14076;SDS011;7114;51.100;13.998;2023-07-31T13:59:49;6.55;;;1.83;;
14076;SDS011;7114;51.100;13.998;2023-07-31T14:02:15;7.30;;;1.67;;
14076;SDS011;7114;51.100;13.998;2023-07-31T14:04:42;6.77;;;1.60;;
14076;SDS011;7114;51.100;13.998;2023-07-31T14:07:08;6.40;;;1.60;;
14076;SDS011;7114;51.100;13.998;2023-07-31T14:09:34;5.88;;;1.65;;
14076;SDS011;7114;51.100;13.998;2023-07-31T14:12:01;8.35;;;1.88;;
14076;SDS011;7114;51.100;13.998;2023-07-31T14:14:28;6.80;;;1.77;;
14076;SDS011;7114;51.100;13.998;2023-07-31T14:16:55;9.40;;;2.07;;
14076;SDS011;7114;51.100;13.998;2023-07-31T14:19:21;6.85;;;2.05;;
14076;SDS011;7114;51.100;13.998;2023-07-31T14:21:47;6.80;;;1.60;;
14076;SDS011;7114;51.100;13.998;2023-07-31T14:24:14;5.93;;;1.50;;
14076;SDS011;7114;51.100;13.998;2023-07-31T14:26:40;5.95;;;1.52;;
14076;SDS011;7114;51.100;13.998;2023-07-31T14:29:06;7.27;;;1.70;;
14076;SDS011;7114;51.100;13.998;2023-07-31T14:31:34;7.60;;;1.98;;
14076;SDS011;7114;51.100;13.998;2023-07-31T14:34:00;5.68;;;1.40;;
14076;SDS011;7114;51.100;13.998;2023-07-31T14:36:27;6.00;;;1.80;;
14076;SDS011;7114;51.100;13.998;2023-07-31T14:38:53;7.93;;;1.80;;
14076;SDS011;7114;51.100;13.998;2023-07-31T14:41:19;6.57;;;1.80;;
14076;SDS011;7114;51.100;13.998;2023-07-31T14:43:46;6.80;;;1.83;;
14076;SDS011;7114;51.100;13.998;2023-07-31T14:46:12;6.30;;;1.80;;